Time;durP1;ratioP1;P1;durP2;ratioP2;P2;SDS_P1;SDS_P2;PMS_P1;PMS_P2;Temp;Humidity;BMP_temperature;BMP_pressure;BME280_temperature;BME280_humidity;BME280_pressure;Samples;Min_cycle;Max_cycle;Signal;HPM_P1;HPM_P2
2023/03/09 00:00:56;;;;;;;14.50;8.38;;;1.30;99.90;;;;;;5071229;28;20046;-77
2023/03/09 00:03:22;;;;;;;16.38;11.38;;;1.40;99.90;;;;;;5061175;28;20053;-77
2023/03/09 00:05:59;;;;;;;19.25;12.48;;;1.30;99.90;;;;;;5065639;28;20060;-77
2023/03/09 00:08:27;;;;;;;19.63;12.95;;;1.30;99.90;;;;;;5063637;28;20412;-77
2023/03/09 00:10:53;;;;;;;19.00;12.77;;;1.20;99.90;;;;;;5061972;28;20092;-77
2023/03/09 00:13:19;;;;;;;18.88;12.57;;;1.30;99.90;;;;;;5076024;28;20095;-77
2023/03/09 00:15:49;;;;;;;19.38;14.00;;;1.20;99.90;;;;;;5074673;28;20060;-77
2023/03/09 00:18:17;;;;;;;20.77;14.05;;;1.20;99.90;;;;;;5069820;28;20128;-77
2023/03/09 00:20:43;;;;;;;18.23;12.25;;;1.20;99.90;;;;;;5065721;28;20114;-77
2023/03/09 00:23:10;;;;;;;21.05;14.52;;;1.20;99.90;;;;;;5058232;28;20056;-77
2023/03/09 00:25:36;;;;;;;19.55;13.25;;;1.20;99.90;;;;;;5065086;28;20056;-77
2023/03/09 00:28:02;;;;;;;19.75;13.55;;;1.20;99.90;;;;;;5053327;28;20044;-77
2023/03/09 00:30:27;;;;;;;20.98;14.38;;;1.20;99.90;;;;;;5074750;28;20098;-77
2023/03/09 00:32:53;;;;;;;23.27;16.40;;;1.10;99.90;;;;;;5074665;28;20041;-77
2023/03/09 00:35:19;;;;;;;24.75;16.17;;;1.30;99.90;;;;;;5069679;28;20045;-78
2023/03/09 00:37:46;;;;;;;24.55;15.85;;;1.00;99.90;;;;;;5075107;28;20055;-78
2023/03/09 00:40:14;;;;;;;21.88;13.75;;;1.00;99.90;;;;;;5071619;28;20052;-77
2023/03/09 00:42:44;;;;;;;22.40;14.60;;;1.00;99.90;;;;;;5065797;28;20052;-77
2023/03/09 00:45:10;;;;;;;23.58;14.90;;;1.00;99.90;;;;;;5057264;28;20400;-78
2023/03/09 00:47:36;;;;;;;24.40;15.88;;;1.00;99.90;;;;;;5073895;28;20052;-77
2023/03/09 00:50:02;;;;;;;24.65;14.95;;;1.00;99.90;;;;;;5052289;28;20358;-78
2023/03/09 00:52:28;;;;;;;21.58;14.02;;;0.90;99.90;;;;;;5074296;28;20443;-77
2023/03/09 00:54:54;;;;;;;22.40;14.77;;;1.40;99.90;;;;;;5073432;28;20060;-77
2023/03/09 00:57:21;;;;;;;21.88;14.10;;;0.90;99.90;;;;;;5059555;28;20060;-77
2023/03/09 00:59:47;;;;;;;22.10;14.40;;;1.00;99.90;;;;;;5066890;28;20048;-77
2023/03/09 01:02:13;;;;;;;20.35;13.23;;;0.90;99.90;;;;;;5068742;28;20522;-77
2023/03/09 01:04:39;;;;;;;22.60;14.65;;;1.00;99.90;;;;;;5068439;28;20080;-77
2023/03/09 01:07:05;;;;;;;22.42;14.23;;;1.00;99.90;;;;;;5054052;28;20476;-77
2023/03/09 01:09:31;;;;;;;23.38;13.88;;;1.00;99.90;;;;;;5057235;28;20052;-77
2023/03/09 01:11:57;;;;;;;23.95;16.35;;;0.90;99.90;;;;;;5066386;28;20051;-77
2023/03/09 01:14:22;;;;;;;25.33;15.90;;;0.90;99.90;;;;;;5056572;28;20489;-77
2023/03/09 01:16:48;;;;;;;26.02;15.38;;;0.90;99.90;;;;;;5051731;28;20048;-77
2023/03/09 01:19:14;;;;;;;22.42;14.07;;;0.90;99.90;;;;;;5067346;28;20056;-77
2023/03/09 01:21:39;;;;;;;21.40;13.70;;;1.00;99.90;;;;;;5068101;28;20048;-77
2023/03/09 01:24:05;;;;;;;22.35;14.82;;;0.90;99.90;;;;;;5042193;28;20044;-77
2023/03/09 01:26:31;;;;;;;22.13;13.77;;;0.90;99.90;;;;;;5073227;28;20068;-77
2023/03/09 01:28:57;;;;;;;21.67;13.32;;;0.80;99.90;;;;;;5070199;28;20515;-78
2023/03/09 01:31:23;;;;;;;21.98;13.75;;;0.90;99.90;;;;;;5064621;28;20124;-77
2023/03/09 01:33:49;;;;;;;23.08;14.63;;;1.50;99.90;;;;;;5071786;28;20075;-78
2023/03/09 01:36:17;;;;;;;20.65;13.57;;;0.90;99.90;;;;;;5056806;28;20489;-78
2023/03/09 01:38:44;;;;;;;20.25;12.90;;;1.00;99.90;;;;;;5073710;28;20139;-78
2023/03/09 01:41:12;;;;;;;22.20;14.32;;;1.00;99.90;;;;;;5058915;28;20040;-78
2023/03/09 01:43:40;;;;;;;21.98;14.35;;;0.90;99.90;;;;;;5053447;28;20114;-78
2023/03/09 01:46:24;;;;;;;10.98;4.78;;;0.90;99.90;;;;;;5067407;28;20072;-79
2023/03/09 01:48:54;;;;;;;19.25;12.27;;;1.00;99.90;;;;;;5073428;28;20077;-77
2023/03/09 01:51:23;;;;;;;18.45;11.23;;;0.90;99.90;;;;;;5067187;28;20048;-77
2023/03/09 01:53:51;;;;;;;20.27;13.75;;;0.80;99.90;;;;;;5049079;28;20056;-78
2023/03/09 01:56:20;;;;;;;19.48;13.45;;;1.20;99.90;;;;;;5053872;28;20049;-79
2023/03/09 01:58:48;;;;;;;19.05;12.52;;;0.80;99.90;;;;;;5054231;28;20501;-78
2023/03/09 02:01:15;;;;;;;21.10;14.80;;;1.50;99.90;;;;;;5073024;28;20055;-77
2023/03/09 02:03:45;;;;;;;20.50;13.88;;;0.70;99.90;;;;;;5073457;28;20458;-77
2023/03/09 02:06:17;;;;;;;20.75;13.50;;;0.70;99.90;;;;;;5073668;28;20041;-77
2023/03/09 02:09:14;;;;;;;21.75;13.57;;;0.70;99.90;;;;;;5056567;28;20052;-77
2023/03/09 02:11:40;;;;;;;20.85;13.43;;;0.70;99.90;;;;;;5077260;28;20056;-77
2023/03/09 02:14:08;;;;;;;21.20;14.10;;;0.80;99.90;;;;;;5050293;28;20052;-77
2023/03/09 02:16:33;;;;;;;19.23;12.00;;;0.70;99.90;;;;;;5068352;28;20057;-78
2023/03/09 02:18:59;;;;;;;21.83;14.48;;;0.70;99.90;;;;;;5040002;28;20032;-77
2023/03/09 02:21:50;;;;;;;21.92;14.52;;;0.70;99.90;;;;;;5072602;28;20048;-78
2023/03/09 02:24:52;;;;;;;20.52;13.85;;;0.70;99.90;;;;;;5068761;28;20381;-77
2023/03/09 02:27:19;;;;;;;21.27;13.85;;;0.70;99.90;;;;;;5065785;28;20055;-77
2023/03/09 02:29:46;;;;;;;22.52;14.20;;;0.70;99.90;;;;;;5073550;28;20498;-77
2023/03/09 02:32:12;;;;;;;19.95;12.88;;;0.80;99.90;;;;;;5073743;28;20037;-78
2023/03/09 02:34:38;;;;;;;22.88;15.02;;;0.80;99.90;;;;;;5060023;28;20049;-78
2023/03/09 02:37:04;;;;;;;22.30;14.35;;;1.10;99.90;;;;;;5073054;28;20097;-77
2023/03/09 02:39:57;;;;;;;22.92;14.40;;;0.80;99.90;;;;;;5072139;28;20489;-77
2023/03/09 02:42:23;;;;;;;23.15;14.95;;;1.00;99.90;;;;;;5068741;28;20100;-78
2023/03/09 02:44:49;;;;;;;22.58;13.73;;;0.80;99.90;;;;;;5036367;28;20057;-77
2023/03/09 02:47:20;;;;;;;22.55;14.10;;;0.80;99.90;;;;;;5072241;28;20051;-78
2023/03/09 02:49:45;;;;;;;22.83;14.88;;;1.10;99.90;;;;;;5055608;28;20209;-77
2023/03/09 02:52:12;;;;;;;26.10;16.23;;;0.80;99.90;;;;;;5034933;28;20147;-77
2023/03/09 02:54:38;;;;;;;22.17;14.70;;;0.80;99.90;;;;;;5046811;28;20049;-77
2023/03/09 02:57:05;;;;;;;21.45;13.38;;;1.90;99.90;;;;;;5057653;28;20059;-78
2023/03/09 02:59:30;;;;;;;23.65;14.80;;;0.90;99.90;;;;;;5056531;28;20378;-78
2023/03/09 03:01:56;;;;;;;24.60;15.75;;;0.80;99.90;;;;;;5052191;28;20055;-77
2023/03/09 03:04:22;;;;;;;24.10;15.65;;;0.90;99.90;;;;;;5057457;28;20264;-77
2023/03/09 03:06:48;;;;;;;22.38;14.55;;;1.00;99.90;;;;;;5071499;28;20079;-77
2023/03/09 03:09:14;;;;;;;23.73;15.63;;;0.80;99.90;;;;;;5052723;28;20052;-77
2023/03/09 03:11:39;;;;;;;25.40;16.35;;;0.90;99.90;;;;;;5068781;28;20471;-77
2023/03/09 03:14:06;;;;;;;24.25;16.35;;;0.80;99.90;;;;;;5061604;28;20111;-77
2023/03/09 03:16:36;;;;;;;25.33;16.17;;;1.80;99.90;;;;;;5057496;28;20056;-77
2023/03/09 03:19:02;;;;;;;25.50;16.58;;;0.80;99.90;;;;;;5068485;28;20056;-77
2023/03/09 03:21:28;;;;;;;26.00;16.48;;;0.90;99.90;;;;;;5071650;28;20075;-78
2023/03/09 03:23:54;;;;;;;26.33;16.63;;;0.90;99.90;;;;;;5071906;28;20102;-78
2023/03/09 03:26:19;;;;;;;25.77;16.27;;;1.10;99.90;;;;;;5072099;28;20571;-77
2023/03/09 03:28:45;;;;;;;25.27;17.55;;;0.90;99.90;;;;;;5072439;28;20044;-77
2023/03/09 03:31:11;;;;;;;25.48;17.10;;;0.90;99.90;;;;;;5071559;28;20128;-77
2023/03/09 03:33:38;;;;;;;25.90;16.83;;;0.90;99.90;;;;;;5068584;28;20484;-77
2023/03/09 03:36:04;;;;;;;26.42;16.90;;;0.90;99.90;;;;;;5066447;28;20053;-78
2023/03/09 03:38:29;;;;;;;24.27;16.27;;;0.90;99.90;;;;;;5051525;28;20053;-78
2023/03/09 03:40:55;;;;;;;27.40;17.38;;;1.70;99.90;;;;;;5050047;28;20550;-77
2023/03/09 03:43:21;;;;;;;26.98;17.67;;;1.70;99.90;;;;;;5041612;28;20052;-77
2023/03/09 03:45:47;;;;;;;25.65;16.60;;;0.80;99.90;;;;;;5057937;28;20045;-77
2023/03/09 03:48:12;;;;;;;26.13;17.15;;;0.90;99.90;;;;;;5069810;28;20422;-77
2023/03/09 03:50:38;;;;;;;25.73;17.20;;;0.90;99.90;;;;;;5071143;28;20053;-77
2023/03/09 03:53:04;;;;;;;25.60;16.77;;;0.90;99.90;;;;;;5053490;28;20045;-77
2023/03/09 03:55:30;;;;;;;27.30;17.27;;;1.40;99.90;;;;;;5060050;28;20051;-77
2023/03/09 03:57:55;;;;;;;27.13;17.52;;;0.90;99.90;;;;;;5072310;28;20049;-77
2023/03/09 04:00:22;;;;;;;27.10;16.77;;;0.90;99.90;;;;;;5054501;28;20059;-77
2023/03/09 04:02:48;;;;;;;26.35;16.65;;;0.80;99.90;;;;;;5072268;28;20102;-77
2023/03/09 04:05:14;;;;;;;26.40;17.00;;;0.80;99.90;;;;;;5071027;28;20053;-77
2023/03/09 04:07:40;;;;;;;24.30;16.02;;;0.90;99.90;;;;;;5061656;28;20079;-78
2023/03/09 04:10:06;;;;;;;25.10;16.35;;;1.00;99.90;;;;;;5070431;28;20400;-77
2023/03/09 04:12:32;;;;;;;24.85;16.25;;;0.90;99.90;;;;;;5071388;28;20058;-77
2023/03/09 04:14:58;;;;;;;26.02;16.60;;;0.90;99.90;;;;;;5056579;28;20132;-77
2023/03/09 04:17:23;;;;;;;23.98;16.08;;;0.90;99.90;;;;;;5072335;28;20067;-77
2023/03/09 04:19:49;;;;;;;24.60;15.50;;;0.90;99.90;;;;;;5070938;28;20526;-77
2023/03/09 04:22:15;;;;;;;25.15;16.80;;;1.40;99.90;;;;;;5058261;28;20042;-78
2023/03/09 04:24:40;;;;;;;24.33;16.08;;;1.00;99.90;;;;;;5066594;28;20080;-77
2023/03/09 04:27:06;;;;;;;26.23;16.63;;;0.90;99.90;;;;;;5070031;28;20041;-77
2023/03/09 04:29:32;;;;;;;24.83;16.73;;;0.90;99.90;;;;;;5070908;28;20044;-77
2023/03/09 04:31:58;;;;;;;26.88;17.15;;;2.00;99.90;;;;;;5070368;28;20045;-77
2023/03/09 04:34:23;;;;;;;26.38;16.65;;;1.90;99.90;;;;;;5065879;28;20044;-77
2023/03/09 04:36:49;;;;;;;25.80;17.48;;;0.80;99.90;;;;;;5051482;28;20394;-77
2023/03/09 04:39:16;;;;;;;25.70;17.52;;;0.90;99.90;;;;;;5071221;28;20044;-77
2023/03/09 04:41:42;;;;;;;26.55;17.40;;;0.80;99.90;;;;;;5057326;28;20060;-78
2023/03/09 04:44:07;;;;;;;25.92;16.58;;;1.10;99.90;;;;;;5071142;28;20037;-77
2023/03/09 04:46:33;;;;;;;25.42;17.15;;;0.80;99.90;;;;;;5059416;28;20053;-77
2023/03/09 04:48:59;;;;;;;27.17;17.50;;;0.80;99.90;;;;;;5054081;28;20052;-77
2023/03/09 04:51:25;;;;;;;26.65;17.08;;;1.90;99.90;;;;;;5061711;28;20480;-77
2023/03/09 04:53:50;;;;;;;27.25;17.42;;;1.20;99.90;;;;;;5064715;28;20048;-77
2023/03/09 04:56:16;;;;;;;29.00;18.63;;;0.80;99.90;;;;;;5057050;28;20067;-77
2023/03/09 04:58:42;;;;;;;30.80;19.52;;;0.80;99.90;;;;;;5074758;28;20040;-77
2023/03/09 05:01:07;;;;;;;34.88;21.40;;;0.80;99.90;;;;;;5068805;28;20144;-77
2023/03/09 05:03:33;;;;;;;31.60;20.33;;;0.70;99.90;;;;;;5066605;28;20099;-77
2023/03/09 05:05:59;;;;;;;31.23;19.05;;;0.70;99.90;;;;;;5073749;28;20132;-77
2023/03/09 05:08:25;;;;;;;35.97;21.85;;;0.70;99.90;;;;;;5058116;28;20131;-77
2023/03/09 05:10:50;;;;;;;35.97;21.08;;;0.70;99.90;;;;;;5064350;28;20385;-77
2023/03/09 05:13:16;;;;;;;34.15;20.48;;;0.70;99.90;;;;;;5060779;28;20495;-77
2023/03/09 05:15:42;;;;;;;35.15;21.40;;;0.70;99.90;;;;;;5057034;28;20037;-77
2023/03/09 05:18:08;;;;;;;34.53;21.00;;;1.00;99.90;;;;;;5074161;28;20124;-77
2023/03/09 05:20:37;;;;;;;35.97;21.05;;;0.60;99.90;;;;;;5071313;28;20080;-77
2023/03/09 05:23:03;;;;;;;35.75;20.67;;;1.20;99.90;;;;;;5074083;28;20542;-78
2023/03/09 05:25:29;;;;;;;39.17;21.17;;;0.60;99.90;;;;;;5071815;28;20127;-77
2023/03/09 05:27:55;;;;;;;34.75;20.83;;;0.70;99.90;;;;;;5067290;28;20049;-77
2023/03/09 05:30:21;;;;;;;37.22;21.85;;;0.60;99.90;;;;;;5073346;28;20397;-77
2023/03/09 05:32:49;;;;;;;40.00;23.42;;;0.60;99.90;;;;;;5071862;28;20044;-77
2023/03/09 05:35:16;;;;;;;36.95;21.65;;;1.40;99.90;;;;;;5068355;28;20045;-77
2023/03/09 05:37:43;;;;;;;37.88;22.20;;;0.70;99.90;;;;;;5039965;28;20075;-77
2023/03/09 05:40:10;;;;;;;37.72;21.77;;;0.60;99.90;;;;;;5066715;28;20155;-77
2023/03/09 05:42:36;;;;;;;47.78;28.17;;;0.60;99.90;;;;;;5065893;28;20056;-77
2023/03/09 05:45:04;;;;;;;45.00;27.98;;;0.60;99.90;;;;;;5073170;28;20047;-77
2023/03/09 05:47:30;;;;;;;41.67;24.08;;;0.60;99.90;;;;;;5058617;28;20549;-77
2023/03/09 05:49:56;;;;;;;45.60;26.00;;;0.60;99.90;;;;;;5073498;28;20110;-77
2023/03/09 05:52:22;;;;;;;46.00;29.75;;;0.70;99.90;;;;;;5056539;28;20076;-77
2023/03/09 05:54:48;;;;;;;44.88;25.25;;;0.70;99.90;;;;;;5051368;28;20048;-77
2023/03/09 05:57:14;;;;;;;39.67;24.63;;;0.70;99.90;;;;;;5066910;28;20059;-77
2023/03/09 05:59:40;;;;;;;50.08;32.85;;;0.70;99.90;;;;;;5056291;28;20063;-77
2023/03/09 06:02:06;;;;;;;39.65;22.23;;;0.70;99.90;;;;;;5073433;28;20146;-77
2023/03/09 06:04:32;;;;;;;55.63;32.67;;;0.70;99.90;;;;;;5073644;28;20156;-77
2023/03/09 06:06:58;;;;;;;63.53;39.08;;;0.70;99.90;;;;;;5067905;28;20045;-77
2023/03/09 06:09:25;;;;;;;44.20;26.00;;;0.70;99.90;;;;;;5055100;28;20041;-77
2023/03/09 06:11:51;;;;;;;41.75;23.77;;;0.70;99.90;;;;;;5070026;28;20049;-77
2023/03/09 06:14:16;;;;;;;53.50;32.33;;;0.70;99.90;;;;;;5062624;28;20064;-77
2023/03/09 06:16:42;;;;;;;55.25;37.60;;;1.00;99.90;;;;;;5066848;28;20468;-77
2023/03/09 06:19:08;;;;;;;49.97;33.67;;;0.70;99.90;;;;;;5063973;28;20047;-77
2023/03/09 06:21:34;;;;;;;45.90;29.20;;;0.70;99.90;;;;;;5073202;28;20040;-77
2023/03/09 06:24:00;;;;;;;45.22;27.08;;;0.70;99.90;;;;;;5073094;28;20516;-77
2023/03/09 06:26:26;;;;;;;48.63;27.27;;;0.70;99.90;;;;;;5064967;28;20088;-78
2023/03/09 06:28:51;;;;;;;45.55;27.05;;;0.70;99.90;;;;;;5067026;28;20053;-77
2023/03/09 06:31:17;;;;;;;40.78;23.90;;;0.80;99.90;;;;;;5066208;28;20492;-77
2023/03/09 06:33:44;;;;;;;49.30;29.25;;;0.80;99.90;;;;;;5040000;28;20101;-78
2023/03/09 06:36:12;;;;;;;39.58;23.73;;;0.80;99.90;;;;;;5073728;28;20048;-78
2023/03/09 06:38:39;;;;;;;40.63;23.77;;;0.80;99.90;;;;;;5083205;28;20139;-77
2023/03/09 06:41:05;;;;;;;34.53;20.95;;;0.80;99.90;;;;;;5079952;28;20097;-78
2023/03/09 06:43:31;;;;;;;39.78;22.77;;;0.80;99.90;;;;;;5079536;28;20051;-78
2023/03/09 06:45:56;;;;;;;40.45;23.23;;;0.80;99.90;;;;;;5085458;28;20067;-77
2023/03/09 06:48:22;;;;;;;39.05;23.27;;;0.80;99.90;;;;;;5086910;28;20456;-77
2023/03/09 06:50:51;;;;;;;39.05;22.95;;;0.80;99.90;;;;;;5079457;28;20127;-78
2023/03/09 06:53:17;;;;;;;37.60;22.65;;;0.80;99.90;;;;;;5083886;28;20048;-78
2023/03/09 06:55:43;;;;;;;38.65;23.17;;;0.90;99.90;;;;;;5081179;28;20408;-78
2023/03/09 06:58:09;;;;;;;38.85;23.42;;;0.90;99.90;;;;;;5083979;28;20048;-78
2023/03/09 07:00:40;;;;;;;41.25;24.00;;;0.90;99.90;;;;;;5079238;28;20115;-78
2023/03/09 07:03:09;;;;;;;40.13;23.80;;;0.80;99.90;;;;;;5088296;28;20047;-78
2023/03/09 07:05:34;;;;;;;39.58;23.48;;;1.00;99.90;;;;;;5083128;28;20424;-78
2023/03/09 07:08:00;;;;;;;39.10;23.40;;;0.90;99.90;;;;;;5089191;28;20044;-78
2023/03/09 07:10:26;;;;;;;36.78;21.95;;;0.90;99.90;;;;;;5083992;28;20509;-78
2023/03/09 07:12:52;;;;;;;36.75;21.98;;;1.00;99.90;;;;;;5085611;28;20047;-78
2023/03/09 07:15:18;;;;;;;34.00;19.83;;;1.00;99.90;;;;;;5080085;28;20048;-78
2023/03/09 07:17:43;;;;;;;37.13;22.42;;;1.00;99.90;;;;;;5081321;28;20066;-78
2023/03/09 07:20:11;;;;;;;29.23;16.85;;;1.10;99.90;;;;;;5075405;28;20044;-78
2023/03/09 07:22:37;;;;;;;34.10;21.05;;;1.10;99.90;;;;;;5081467;28;20048;-78
2023/03/09 07:25:03;;;;;;;28.15;16.42;;;1.20;99.90;;;;;;5079610;28;20083;-79
2023/03/09 07:27:30;;;;;;;31.67;20.48;;;1.30;99.90;;;;;;5062119;28;20121;-79
2023/03/09 07:29:56;;;;;;;33.58;22.10;;;1.30;99.90;;;;;;5079637;28;20096;-78
2023/03/09 07:32:22;;;;;;;33.35;19.55;;;1.30;99.90;;;;;;5083795;28;20050;-79
2023/03/09 07:34:48;;;;;;;32.15;20.98;;;1.30;99.90;;;;;;5078731;28;20040;-78
2023/03/09 07:37:14;;;;;;;34.40;21.33;;;1.30;99.90;;;;;;5085007;28;20040;-78
2023/03/09 07:39:39;;;;;;;34.28;21.33;;;1.30;99.90;;;;;;5084012;28;20044;-78
2023/03/09 07:42:05;;;;;;;33.85;20.90;;;1.30;99.90;;;;;;5084672;28;20498;-78
2023/03/09 07:44:31;;;;;;;32.40;20.77;;;1.30;99.90;;;;;;5080671;28;20091;-78
2023/03/09 07:46:57;;;;;;;32.40;20.73;;;1.40;99.90;;;;;;5083740;28;20139;-78
2023/03/09 07:49:23;;;;;;;35.95;22.08;;;1.40;99.90;;;;;;5083796;28;20054;-78
2023/03/09 07:51:49;;;;;;;35.10;22.60;;;1.40;99.90;;;;;;5076059;28;20700;-78
2023/03/09 07:54:15;;;;;;;31.77;20.45;;;1.40;99.90;;;;;;5079962;28;20059;-78
2023/03/09 07:56:41;;;;;;;30.60;19.13;;;1.40;99.90;;;;;;5060665;28;20103;-78
2023/03/09 07:59:12;;;;;;;32.60;20.60;;;1.50;99.90;;;;;;5086343;28;20056;-78
2023/03/09 08:01:38;;;;;;;35.43;22.80;;;1.50;99.90;;;;;;5078963;28;20407;-77
2023/03/09 08:04:04;;;;;;;35.72;22.90;;;1.60;99.90;;;;;;5080894;28;20301;-77
2023/03/09 08:06:30;;;;;;;35.67;22.65;;;1.60;99.90;;;;;;5082175;28;20044;-78
2023/03/09 08:08:56;;;;;;;35.65;22.58;;;1.60;99.90;;;;;;5083559;28;20527;-78
2023/03/09 08:11:22;;;;;;;33.13;20.40;;;1.60;99.90;;;;;;5081771;28;20142;-78
2023/03/09 08:13:48;;;;;;;33.58;20.83;;;1.70;99.90;;;;;;5081398;28;20047;-78
2023/03/09 08:16:14;;;;;;;31.65;21.20;;;1.70;99.90;;;;;;5081081;28;20558;-77
2023/03/09 08:18:40;;;;;;;34.33;22.60;;;1.70;99.90;;;;;;5082991;28;20105;-77
2023/03/09 08:21:08;;;;;;;35.15;22.00;;;1.70;99.90;;;;;;5084137;28;20101;-78
2023/03/09 08:23:37;;;;;;;33.63;22.65;;;1.70;99.90;;;;;;5084290;28;20128;-78
2023/03/09 08:26:03;;;;;;;33.35;23.00;;;1.80;99.90;;;;;;5079767;28;20051;-77
2023/03/09 08:28:30;;;;;;;32.22;21.15;;;1.80;99.90;;;;;;5081824;28;20057;-77
2023/03/09 08:30:56;;;;;;;30.98;20.70;;;1.90;99.90;;;;;;5062139;28;20094;-77
2023/03/09 08:33:21;;;;;;;31.20;21.33;;;2.00;99.90;;;;;;5083352;28;20035;-78
2023/03/09 08:35:47;;;;;;;33.00;22.23;;;2.90;99.90;;;;;;5086694;28;20044;-78
2023/03/09 08:38:13;;;;;;;31.58;20.52;;;2.90;99.90;;;;;;5088428;28;20521;-78
2023/03/09 08:40:39;;;;;;;31.80;20.65;;;3.00;99.90;;;;;;5088323;28;20044;-78
2023/03/09 08:43:05;;;;;;;32.15;21.30;;;2.10;99.90;;;;;;5084698;28;20051;-77
2023/03/09 08:45:31;;;;;;;34.97;22.20;;;2.10;99.90;;;;;;5086994;28;20040;-77
2023/03/09 08:47:56;;;;;;;32.03;21.25;;;2.20;99.90;;;;;;5084870;28;20044;-78
2023/03/09 08:50:23;;;;;;;32.10;22.88;;;2.20;99.90;;;;;;5087509;28;20083;-78
2023/03/09 08:52:48;;;;;;;30.45;21.17;;;2.20;99.90;;;;;;5090784;28;20051;-78
2023/03/09 08:55:15;;;;;;;28.25;18.88;;;2.20;99.90;;;;;;5085444;28;20079;-78
2023/03/09 08:57:41;;;;;;;32.42;22.17;;;2.20;99.90;;;;;;5090589;28;20533;-78
2023/03/09 09:00:09;;;;;;;27.48;17.63;;;2.30;99.90;;;;;;5089075;28;20056;-79
2023/03/09 09:02:36;;;;;;;28.25;19.88;;;2.30;99.90;;;;;;5088191;28;20044;-78
2023/03/09 09:05:03;;;;;;;27.67;19.73;;;2.30;99.90;;;;;;5086352;28;20437;-78
2023/03/09 09:07:29;;;;;;;33.45;21.55;;;2.30;99.90;;;;;;5088209;28;20048;-78
2023/03/09 09:09:55;;;;;;;29.70;21.85;;;2.30;99.90;;;;;;5084729;28;20052;-78
2023/03/09 09:12:21;;;;;;;30.13;20.80;;;2.30;99.90;;;;;;5084744;28;20044;-78
2023/03/09 09:14:47;;;;;;;31.42;21.17;;;2.30;99.90;;;;;;5103077;28;20044;-78
2023/03/09 09:17:13;;;;;;;29.25;20.17;;;2.30;99.90;;;;;;5089960;28;20062;-78
2023/03/09 09:19:41;;;;;;;31.63;21.80;;;2.40;99.90;;;;;;5089717;28;20514;-78
2023/03/09 09:22:08;;;;;;;32.25;22.92;;;2.30;99.90;;;;;;5082085;28;20051;-77
2023/03/09 09:24:38;;;;;;;28.75;21.00;;;2.20;99.90;;;;;;5086803;28;20040;-77
2023/03/09 09:27:05;;;;;;;27.58;17.35;;;2.30;99.90;;;;;;5086048;28;20048;-78
2023/03/09 09:29:35;;;;;;;27.73;18.30;;;2.40;99.90;;;;;;5085821;28;20130;-78
2023/03/09 09:32:03;;;;;;;30.90;21.63;;;2.50;99.90;;;;;;5086919;28;20032;-78
2023/03/09 09:34:33;;;;;;;31.42;22.13;;;2.50;99.90;;;;;;5087933;28;20072;-78
2023/03/09 09:37:00;;;;;;;29.85;22.05;;;2.50;99.90;;;;;;5087099;28;20130;-78
2023/03/09 09:39:27;;;;;;;30.00;19.70;;;2.40;99.90;;;;;;5081323;28;20051;-79
2023/03/09 09:42:00;;;;;;;31.52;21.98;;;2.60;99.90;;;;;;5084217;28;20056;-78
2023/03/09 09:44:37;;;;;;;29.95;21.73;;;2.70;99.90;;;;;;5083502;28;20056;-77
2023/03/09 09:47:06;;;;;;;31.30;21.45;;;2.70;99.90;;;;;;5089936;28;20395;-77
2023/03/09 09:49:42;;;;;;;29.63;21.98;;;2.60;99.90;;;;;;5085264;28;20112;-77
2023/03/09 09:52:13;;;;;;;28.50;19.25;;;2.60;99.90;;;;;;5088057;28;20048;-78
2023/03/09 09:54:58;;;;;;;26.83;19.27;;;2.70;99.90;;;;;;5085658;28;20047;-78
2023/03/09 09:58:04;;;;;;;28.70;18.27;;;2.70;99.90;;;;;;5083286;28;20052;-78
2023/03/09 10:00:42;;;;;;;28.67;19.90;;;2.80;99.90;;;;;;5041001;28;20079;-78
2023/03/09 10:03:19;;;;;;;29.77;21.08;;;2.90;99.90;;;;;;5088916;28;20082;-78
2023/03/09 10:06:01;;;;;;;27.92;19.23;;;2.90;99.90;;;;;;5088548;28;20514;-78
2023/03/09 10:08:39;;;;;;;28.05;19.85;;;2.90;99.90;;;;;;5084209;28;20052;-78
2023/03/09 10:11:11;;;;;;;30.83;21.38;;;3.00;99.90;;;;;;5086024;28;20052;-77
2023/03/09 10:13:50;;;;;;;27.20;18.90;;;3.00;99.90;;;;;;5081656;28;20052;-78
2023/03/09 10:16:29;;;;;;;28.10;19.30;;;3.10;99.90;;;;;;5086293;28;20044;-77
2023/03/09 10:18:59;;;;;;;24.77;16.60;;;3.90;99.90;;;;;;5083510;28;20113;-78
2023/03/09 10:21:42;;;;;;;27.75;19.88;;;3.10;99.90;;;;;;5088684;28;20052;-78
2023/03/09 10:24:34;;;;;;;28.95;20.02;;;3.00;99.90;;;;;;5082757;28;20122;-78
2023/03/09 10:27:01;;;;;;;27.13;18.38;;;2.90;99.90;;;;;;5083295;28;20400;-78
2023/03/09 10:29:37;;;;;;;25.52;17.75;;;2.90;99.90;;;;;;5067416;28;20048;-77
2023/03/09 10:32:19;;;;;;;26.15;18.15;;;3.00;99.90;;;;;;5079289;28;20058;-78
2023/03/09 10:34:58;;;;;;;26.73;19.20;;;2.90;99.90;;;;;;5082647;28;20052;-78
2023/03/09 10:37:29;;;;;;;26.63;18.23;;;3.00;99.90;;;;;;5085222;28;20048;-77
2023/03/09 10:39:57;;;;;;;25.60;17.50;;;3.00;99.90;;;;;;5080909;28;20098;-77
2023/03/09 10:42:25;;;;;;;26.38;17.80;;;2.90;99.90;;;;;;5086251;28;20531;-77
2023/03/09 10:45:04;;;;;;;24.73;18.38;;;2.90;99.90;;;;;;5083622;28;20071;-78
2023/03/09 10:47:58;;;;;;;25.30;17.00;;;2.90;99.90;;;;;;5078880;28;20556;-78
2023/03/09 10:50:35;;;;;;;25.23;17.25;;;3.00;99.90;;;;;;5074067;28;20559;-77
2023/03/09 10:53:38;;;;;;;25.73;17.98;;;3.10;99.90;;;;;;5089798;28;20101;-78
2023/03/09 10:56:20;;;;;;;27.25;18.75;;;3.10;99.90;;;;;;5005086;28;20163;-77
2023/03/09 10:58:47;;;;;;;26.85;17.45;;;3.10;99.90;;;;;;5075754;28;20060;-78
2023/03/09 11:01:12;;;;;;;25.98;16.02;;;3.10;99.90;;;;;;5083556;28;20437;-77
2023/03/09 11:03:41;;;;;;;24.80;17.40;;;3.20;99.90;;;;;;5077482;28;20082;-77
2023/03/09 11:06:15;;;;;;;26.70;18.40;;;3.10;99.90;;;;;;5060503;28;20045;-77
2023/03/09 11:08:43;;;;;;;27.10;17.65;;;3.00;99.90;;;;;;5085948;28;20063;-78
2023/03/09 11:11:23;;;;;;;26.95;19.00;;;3.10;99.90;;;;;;5084192;28;20037;-77
2023/03/09 11:13:49;;;;;;;24.55;16.45;;;3.20;99.90;;;;;;5061554;28;20497;-77
2023/03/09 11:16:23;;;;;;;26.50;17.98;;;3.30;99.90;;;;;;5072109;28;20056;-77
2023/03/09 11:19:14;;;;;;;26.42;19.02;;;3.30;99.90;;;;;;5080349;28;20046;-78
2023/03/09 11:22:09;;;;;;;25.42;17.45;;;3.30;99.90;;;;;;5080539;28;20515;-77
2023/03/09 11:24:42;;;;;;;26.83;18.58;;;3.30;99.90;;;;;;5080115;28;20601;-77
2023/03/09 11:27:23;;;;;;;22.58;14.05;;;3.30;99.90;;;;;;5083107;28;20446;-78
2023/03/09 11:30:12;;;;;;;26.83;18.73;;;3.40;99.90;;;;;;5082407;28;20052;-77
2023/03/09 11:32:37;;;;;;;29.20;19.63;;;3.40;99.90;;;;;;5067076;28;20055;-77
2023/03/09 11:35:03;;;;;;;27.23;19.30;;;3.30;99.90;;;;;;5083478;28;20048;-78
2023/03/09 11:37:36;;;;;;;25.73;17.48;;;3.40;99.90;;;;;;5084305;28;20082;-77
2023/03/09 11:40:10;;;;;;;25.50;17.83;;;3.50;99.90;;;;;;5086903;28;20052;-78
2023/03/09 11:42:38;;;;;;;25.95;18.08;;;3.50;99.90;;;;;;5082596;28;20152;-77
2023/03/09 11:45:34;;;;;;;25.90;17.45;;;3.50;99.90;;;;;;5087416;28;20489;-78
2023/03/09 11:48:24;;;;;;;26.27;17.52;;;3.50;99.90;;;;;;5061428;28;20056;-77
2023/03/09 11:51:01;;;;;;;22.33;15.88;;;3.70;99.90;;;;;;5071828;28;20434;-77
2023/03/09 11:53:39;;;;;;;26.20;18.75;;;3.70;99.90;;;;;;5087764;28;20052;-77
2023/03/09 11:56:49;;;;;;;25.92;17.35;;;3.70;99.90;;;;;;5078132;28;20559;-77
2023/03/09 11:59:52;;;;;;;25.30;16.95;;;3.60;99.90;;;;;;5058532;28;20112;-77
2023/03/09 12:02:37;;;;;;;25.20;17.02;;;3.70;99.90;;;;;;5060108;28;20438;-78
2023/03/09 12:05:10;;;;;;;26.75;18.70;;;3.80;99.90;;;;;;5078401;28;20060;-77
2023/03/09 12:07:52;;;;;;;24.38;17.20;;;3.80;99.90;;;;;;5069401;28;20066;-78
2023/03/09 12:10:25;;;;;;;27.75;18.30;;;4.00;99.90;;;;;;5076987;28;20076;-78
2023/03/09 12:13:05;;;;;;;25.63;18.30;;;3.90;99.90;;;;;;5093076;28;20051;-77
2023/03/09 12:15:30;;;;;;;24.00;17.80;;;4.00;99.90;;;;;;5079627;28;20048;-77
2023/03/09 12:17:58;;;;;;;25.02;17.83;;;3.90;99.90;;;;;;5092712;28;20043;-77
2023/03/09 12:20:39;;;;;;;25.02;17.80;;;3.90;99.90;;;;;;5070792;28;20049;-77
2023/03/09 12:23:25;;;;;;;24.17;17.05;;;3.90;99.90;;;;;;5085728;28;20048;-78
2023/03/09 12:25:56;;;;;;;24.90;16.15;;;4.00;99.90;;;;;;5077419;28;20036;-77
2023/03/09 12:28:23;;;;;;;23.97;16.33;;;4.00;99.90;;;;;;5093157;28;20040;-78
2023/03/09 12:30:54;;;;;;;26.40;17.83;;;4.00;99.90;;;;;;5083975;28;20693;-77
2023/03/09 12:33:42;;;;;;;22.88;16.17;;;3.90;99.90;;;;;;5065735;28;20040;-78
2023/03/09 12:36:29;;;;;;;25.92;16.52;;;3.90;99.90;;;;;;5082191;28;20183;-77
2023/03/09 12:39:26;;;;;;;25.05;17.92;;;4.00;99.90;;;;;;5076964;28;20082;-77
2023/03/09 12:42:22;;;;;;;26.45;18.05;;;3.90;99.90;;;;;;5089469;28;20085;-77
2023/03/09 12:44:47;;;;;;;25.02;16.02;;;3.90;99.90;;;;;;5065045;28;20109;-77
2023/03/09 12:47:33;;;;;;;27.42;17.90;;;3.90;99.90;;;;;;5080697;28;20048;-77